Wetterstation Rottenburg Seebronn / 442m msl / http://mut-lambrecht.de
LETZTE AKTUALISIERUNG UM: 11:45 DATUM: April 20 2024, time of next update: 11:50
Aktuelles Wettermostly cloudy Aktuelle Temperatur 6.5°C (43.7°F), Apparent temp 4.5°C
Höchsttemperatur (seit Mitternacht)6.6°C um: 11:37 Tiefsttemperatur (seit Mitternacht)3.2°C um: 06:51
Windgeschwindigkeit (10 Minuten )3.0 kmh (1.6 kts) Windrichtung (Dir) (10 Minuten )NNW (332°)
Windchill Temperatur 5.7°C Windspitzen (letzte Std)16.1 kmh (8.7 kts) um: 11:42
Windspitzen (seit Mitternacht)28.0 kmh (15.1 kts) um: 03:35 Höchstes Windmittel / Minute (seit Mitternacht)14.7 kmh (7.9 kts) um: 03:31
Regenmenge (letzte Std)0.0 mm Regenmenge (seit Mitternacht)0.7 mm (0.03 in.) at 00:40
Regenmenge diesen Monat 40.4 mm (1.59 in.) Regenmenge seit Jahresbeginn 180.3 mm (7.10 in.)
Höchste Regenmenge pro Minute (letzte Std)0.0 mm/min Höchste Regenmenge pro Stunde (letzte 6 Std)0.0 mm/stunde
Regenmenge Gestern 4.9 mm Taupunkt 1.6°C (Wet Bulb :4.5°C )
Luftfeuchtigkeit 71 %, Humidex 4.8°C Aktueller Luftdruck (auf Meereshöhe bezogen)1017.6 hPa
Luftdrucktendenz +0.7 hPa (letzte Std) Trend (letzte 1 Std)leicht steigend
Luftdrucktendenz (letzte 12 Std)+6.8 hPa Luftdrucktendenz (letzte 6 Std)+5.0 hPa



Weather report/warning/Metars

Stuttgart-Echterdingen, Germany (EDDS) 48-41N 009-13E 391M
Apr 20, 2024 - 04:50 AM EDT / 2024.04.20 0850 UTC
Wind: from the NW (310 degrees) at 17 MPH (15 KT):0
Visibility: greater than 7 mile(s):0
Sky conditions: mostly cloudy
Temperature: 44 F (7 C)
Dew Point: 32 F (0 C)
Relative Humidity: 60%
Pressure (altimeter): 30.03 in. Hg (1017 hPa)
ob: EDDS 200850Z AUTO 31015KT 9999 SCT028 SCT039 BKN049 07/M00 Q1017 NOSIG
cycle: 9
Karlsruhe, Baden Wurttemberg, Germany (EDSB) 48-46-43N 008-04-47E
Apr 20, 2024 - 04:50 AM EDT / 2024.04.20 0850 UTC
Wind: from the N (350 degrees) at 5 MPH (4 KT) (direction variable):0
Visibility: greater than 7 mile(s):0
Sky conditions: mostly cloudy
Temperature: 46 F (8 C)
Dew Point: 35 F (2 C)
Relative Humidity: 65%
Pressure (altimeter): 30.12 in. Hg (1020 hPa)
ob: EDSB 200850Z 35004KT 300V030 9999 BKN025 BKN049 08/02 Q1020
cycle: 9
Lahr, CAN-AFB, Germany (EDTL) 48-22-09N 007-49-40E
Apr 19, 2024 - 08:20 AM EDT / 2024.04.19 1220 UTC
Wind: from the SSW (200 degrees) at 14 MPH (12 KT) (direction variable):0
Visibility: greater than 7 mile(s):0
Sky conditions: overcast
Weather: light rain
Temperature: 44 F (7 C)
Dew Point: 41 F (5 C)
Relative Humidity: 87%
Pressure (altimeter): 29.94 in. Hg (1014 hPa)
ob: EDTL 191220Z 20012KT 170V230 9999 -RA BKN030 OVC036 07/05 Q1014
cycle: 12
Laupheim, Germany (ETHL) 48-13N 009-55E 550M
Apr 20, 2024 - 04:20 AM EDT / 2024.04.20 0820 UTC
Wind: from the WNW (300 degrees) at 7 MPH (6 KT):0
Visibility: greater than 7 mile(s):0
Sky conditions: mostly cloudy
Temperature: 39 F (4 C)
Dew Point: 32 F (0 C)
Relative Humidity: 75%
Pressure (altimeter): 30.00 in. Hg (1016 hPa)
ob: ETHL 200820Z 30006KT 9999 FEW010 SCT018 BKN032 04/00 Q1016 BLU
cycle: 8


Klicken Sie hier, um zu den Durchschnitts-, Extrem-, Monats- oder Tageswerten zu gelangen


Die Wetterdaten werden alle 5 Minuten aktualisiert.
Die 3 stündige Echtzeitgrafik wird jede Minute aktualisiert.
Bei der 3 stündige Echtzeitgrafik sind derzeit die Skalenfarben von Winddurchschnitt u. Windböen vertauscht. (Softwarebug)

Drücken Sie gegebenenfalls auf "Aktualisieren" in Ihrem Browser, um die aktuellsten Daten zu erhalten.